Time;durP1;ratioP1;P1;durP2;ratioP2;P2;SDS_P1;SDS_P2;PMS_P1;PMS_P2;Temp;Humidity;BMP_temperature;BMP_pressure;BME280_temperature;BME280_humidity;BME280_pressure;Samples;Min_cycle;Max_cycle;Signal;HPM_P1;HPM_P2
2021/01/20 00:01:20;;;;;;;8.40;4.72;;;3.40;97.90;;;;;;5025426;28;20037;-75
2021/01/20 00:03:46;;;;;;;9.27;4.60;;;3.40;98.00;;;;;;5025901;28;20551;-73
2021/01/20 00:06:12;;;;;;;8.65;3.95;;;3.40;98.40;;;;;;5012561;28;20049;-73
2021/01/20 00:08:38;;;;;;;9.82;4.28;;;3.40;97.10;;;;;;5033587;28;20036;-74
2021/01/20 00:11:04;;;;;;;8.48;4.38;;;3.50;97.20;;;;;;5028895;28;20495;-73
2021/01/20 00:13:30;;;;;;;8.82;4.40;;;3.60;97.40;;;;;;5026324;28;20040;-75
2021/01/20 00:15:56;;;;;;;9.15;4.32;;;3.50;97.30;;;;;;5026081;28;20033;-75
2021/01/20 00:18:22;;;;;;;7.85;3.85;;;3.50;97.40;;;;;;5010158;28;20040;-75
2021/01/20 00:20:47;;;;;;;7.00;3.90;;;3.50;97.10;;;;;;5022720;28;20103;-75
2021/01/20 00:23:14;;;;;;;8.25;3.65;;;3.60;95.90;;;;;;5025089;28;20037;-75
2021/01/20 00:25:42;;;;;;;8.05;3.80;;;3.60;96.00;;;;;;5029072;28;20021;-76
2021/01/20 00:28:08;;;;;;;6.38;3.35;;;3.70;96.20;;;;;;5028184;28;20096;-75
2021/01/20 00:30:34;;;;;;;6.90;3.40;;;3.70;95.60;;;;;;5025785;28;20042;-76
2021/01/20 00:32:59;;;;;;;6.18;3.38;;;3.70;95.50;;;;;;5030148;28;20056;-75
2021/01/20 00:35:26;;;;;;;6.85;3.42;;;3.70;95.70;;;;;;5030975;28;20136;-76
2021/01/20 00:37:52;;;;;;;5.57;3.33;;;3.80;95.20;;;;;;5032938;28;20042;-75
2021/01/20 00:40:18;;;;;;;6.85;3.53;;;3.70;95.30;;;;;;5028307;28;20065;-75
2021/01/20 00:42:44;;;;;;;8.82;3.75;;;3.80;95.20;;;;;;5030601;28;20080;-72
2021/01/20 00:45:10;;;;;;;7.03;3.30;;;3.80;95.10;;;;;;5029218;28;20436;-75
2021/01/20 00:47:37;;;;;;;5.93;3.08;;;3.70;95.20;;;;;;5029691;28;20371;-74
2021/01/20 00:50:04;;;;;;;6.45;3.30;;;3.70;95.20;;;;;;5027590;28;20652;-75
2021/01/20 00:52:30;;;;;;;6.85;3.25;;;3.80;94.80;;;;;;5028450;28;20033;-76
2021/01/20 00:54:55;;;;;;;6.35;3.22;;;3.80;95.20;;;;;;5022062;28;20042;-75
2021/01/20 00:57:21;;;;;;;7.07;3.50;;;3.80;94.80;;;;;;5028138;28;20033;-74
2021/01/20 00:59:47;;;;;;;6.68;3.25;;;3.80;94.40;;;;;;5026217;28;20038;-74
2021/01/20 01:02:13;;;;;;;6.65;3.65;;;4.10;94.80;;;;;;5026730;28;20041;-75
2021/01/20 01:04:39;;;;;;;5.78;3.03;;;4.40;94.90;;;;;;5012219;28;20411;-74
2021/01/20 01:07:05;;;;;;;6.05;3.03;;;3.80;94.40;;;;;;5027266;28;20048;-74
2021/01/20 01:09:31;;;;;;;6.88;3.53;;;3.80;94.60;;;;;;5027927;28;20423;-74
2021/01/20 01:11:56;;;;;;;6.63;3.40;;;3.80;94.70;;;;;;5032049;28;20436;-74
2021/01/20 01:14:22;;;;;;;5.97;3.42;;;3.80;94.50;;;;;;5026650;28;20037;-74
2021/01/20 01:16:48;;;;;;;6.68;3.50;;;3.80;95.00;;;;;;5033150;28;20060;-74
2021/01/20 01:19:13;;;;;;;5.63;3.10;;;3.90;94.70;;;;;;5022891;28;20068;-75
2021/01/20 01:21:42;;;;;;;5.20;2.70;;;3.90;93.80;;;;;;5025686;28;20029;-75
2021/01/20 01:24:09;;;;;;;6.55;2.88;;;4.00;94.00;;;;;;5026597;28;20045;-75
2021/01/20 01:26:35;;;;;;;9.75;3.40;;;4.00;93.90;;;;;;5024912;28;20128;-73
2021/01/20 01:29:00;;;;;;;4.88;2.90;;;4.00;94.10;;;;;;5025758;28;20567;-74
2021/01/20 01:31:26;;;;;;;5.88;3.15;;;4.00;93.70;;;;;;5027616;28;20037;-75
2021/01/20 01:33:52;;;;;;;8.23;3.47;;;4.00;93.90;;;;;;5024140;28;20033;-75
2021/01/20 01:36:18;;;;;;;5.88;3.10;;;4.00;93.90;;;;;;5021943;28;20033;-74
2021/01/20 01:38:43;;;;;;;6.43;3.08;;;4.10;94.20;;;;;;5027440;28;20048;-75
2021/01/20 01:41:09;;;;;;;7.88;3.30;;;4.10;93.90;;;;;;5026203;28;20042;-75
2021/01/20 01:43:35;;;;;;;7.55;3.38;;;4.00;94.30;;;;;;5024497;28;20038;-73
2021/01/20 01:46:01;;;;;;;6.88;3.55;;;4.10;93.80;;;;;;5017184;28;20040;-75
2021/01/20 01:48:27;;;;;;;5.50;3.28;;;4.10;94.00;;;;;;5009947;28;20492;-73
2021/01/20 01:50:53;;;;;;;5.97;3.08;;;4.10;93.90;;;;;;5029202;28;20033;-73
2021/01/20 01:53:20;;;;;;;8.70;4.47;;;4.10;94.00;;;;;;5026970;28;20445;-74
2021/01/20 01:55:50;;;;;;;6.05;3.50;;;4.10;94.20;;;;;;5022667;28;20431;-73
2021/01/20 01:58:17;;;;;;;7.10;3.30;;;4.00;94.20;;;;;;5021015;28;20045;-74
2021/01/20 02:00:43;;;;;;;6.82;3.30;;;4.20;94.00;;;;;;5024166;28;20041;-74
2021/01/20 02:03:08;;;;;;;5.78;3.13;;;4.20;94.20;;;;;;5005756;28;20523;-75
2021/01/20 02:05:34;;;;;;;6.90;3.60;;;4.20;94.40;;;;;;5007165;28;20049;-74
2021/01/20 02:08:03;;;;;;;4.80;2.92;;;4.20;94.10;;;;;;5024367;28;20037;-73
2021/01/20 02:10:30;;;;;;;6.07;3.22;;;4.70;94.00;;;;;;5030542;28;20033;-73
2021/01/20 02:13:18;;;;;;;6.68;3.33;;;4.20;94.00;;;;;;5027407;28;20026;-74
2021/01/20 02:15:52;;;;;;;6.10;3.10;;;4.20;94.30;;;;;;5027169;28;20057;-74
2021/01/20 02:18:20;;;;;;;8.75;3.55;;;4.20;93.90;;;;;;5030961;28;20398;-74
2021/01/20 02:21:00;;;;;;;6.28;3.30;;;4.40;93.90;;;;;;5029638;28;20049;-74
2021/01/20 02:23:27;;;;;;;6.00;3.13;;;4.30;93.80;;;;;;5026794;28;20419;-74
2021/01/20 02:25:59;;;;;;;8.20;3.97;;;4.30;93.70;;;;;;5024146;28;20418;-75
2021/01/20 02:28:47;;;;;;;4.90;2.95;;;4.30;93.70;;;;;;5027651;28;20021;-75
2021/01/20 02:31:15;;;;;;;7.15;3.40;;;4.30;94.00;;;;;;5025730;28;20084;-75
2021/01/20 02:33:46;;;;;;;7.55;3.60;;;4.30;93.90;;;;;;5028707;28;20045;-74
2021/01/20 02:36:14;;;;;;;4.40;2.83;;;4.30;94.40;;;;;;5031369;28;20057;-74
2021/01/20 02:38:40;;;;;;;6.43;3.28;;;4.30;94.00;;;;;;5031666;28;20040;-73
2021/01/20 02:41:06;;;;;;;6.65;2.90;;;4.30;93.80;;;;;;5032393;28;20104;-73
2021/01/20 02:43:32;;;;;;;5.82;3.10;;;4.30;94.30;;;;;;5030834;28;20554;-73
2021/01/20 02:45:58;;;;;;;8.90;3.10;;;4.30;93.90;;;;;;5028986;28;20037;-75
2021/01/20 02:48:24;;;;;;;5.80;3.13;;;4.30;94.20;;;;;;5043451;28;20458;-75
2021/01/20 02:50:50;;;;;;;5.75;2.88;;;4.50;94.30;;;;;;5030852;28;20478;-74
2021/01/20 02:53:20;;;;;;;4.97;2.75;;;4.30;94.20;;;;;;5030724;28;20033;-75
2021/01/20 02:55:53;;;;;;;5.28;3.10;;;4.40;94.00;;;;;;5031122;28;20037;-76
2021/01/20 02:58:29;;;;;;;5.25;3.13;;;4.40;94.10;;;;;;5029378;28;20040;-73
2021/01/20 03:00:56;;;;;;;5.45;2.90;;;4.40;94.10;;;;;;5030747;28;20063;-75
2021/01/20 03:03:24;;;;;;;4.88;2.83;;;4.40;94.10;;;;;;5032844;28;20041;-75
2021/01/20 03:05:50;;;;;;;7.88;2.83;;;4.50;93.80;;;;;;5028954;28;20037;-74
2021/01/20 03:08:16;;;;;;;6.03;3.00;;;4.50;93.80;;;;;;5026232;28;20068;-74
2021/01/20 03:10:42;;;;;;;5.32;3.15;;;4.70;93.90;;;;;;5029555;28;20049;-75
2021/01/20 03:13:08;;;;;;;5.57;3.08;;;4.40;94.10;;;;;;5024190;28;20449;-74
2021/01/20 03:15:44;;;;;;;5.53;2.97;;;4.40;94.00;;;;;;5029937;28;20461;-75
2021/01/20 03:18:09;;;;;;;5.55;3.28;;;4.40;94.20;;;;;;5030073;28;20427;-74
2021/01/20 03:20:35;;;;;;;6.65;3.95;;;4.40;94.00;;;;;;5024926;28;20136;-75
2021/01/20 03:23:02;;;;;;;8.18;3.50;;;4.40;94.00;;;;;;5027438;28;20116;-75
2021/01/20 03:25:28;;;;;;;7.85;3.38;;;4.60;94.00;;;;;;5012137;28;20095;-75
2021/01/20 03:27:53;;;;;;;6.50;3.30;;;4.50;94.00;;;;;;5023473;28;20033;-73
2021/01/20 03:30:19;;;;;;;4.82;3.25;;;4.40;94.00;;;;;;5028949;28;20518;-75
2021/01/20 03:32:45;;;;;;;7.05;2.92;;;4.40;94.00;;;;;;5026281;28;20046;-74
2021/01/20 03:35:11;;;;;;;9.02;3.30;;;4.40;94.20;;;;;;5013531;28;20069;-74
2021/01/20 03:37:37;;;;;;;5.93;3.33;;;4.40;94.50;;;;;;5030285;28;20499;-75
2021/01/20 03:40:05;;;;;;;5.05;2.90;;;4.30;94.60;;;;;;5024578;28;20128;-75
2021/01/20 03:42:31;;;;;;;8.05;3.58;;;4.30;94.70;;;;;;5030622;28;20030;-75
2021/01/20 03:44:57;;;;;;;6.10;3.20;;;4.40;94.20;;;;;;5032109;28;20111;-75
2021/01/20 03:47:23;;;;;;;6.22;3.50;;;4.40;94.40;;;;;;5027138;28;20948;-74
2021/01/20 03:49:48;;;;;;;5.18;2.75;;;4.30;94.70;;;;;;5029419;28;20037;-74
2021/01/20 03:52:14;;;;;;;8.40;3.05;;;4.40;94.70;;;;;;5024165;28;20045;-76
2021/01/20 03:54:42;;;;;;;6.03;3.28;;;4.30;94.80;;;;;;5028752;28;20128;-75
2021/01/20 03:57:08;;;;;;;5.47;3.00;;;4.30;95.00;;;;;;5029279;28;20036;-75
2021/01/20 03:59:34;;;;;;;7.45;3.55;;;4.30;94.80;;;;;;5025990;28;20041;-75
2021/01/20 04:02:00;;;;;;;5.80;3.10;;;4.30;94.70;;;;;;5028510;28;20395;-74
2021/01/20 04:04:26;;;;;;;6.72;3.30;;;4.30;94.80;;;;;;5028653;28;20028;-75
2021/01/20 04:06:52;;;;;;;6.10;3.17;;;4.30;94.90;;;;;;5029030;28;20516;-74
2021/01/20 04:09:18;;;;;;;5.45;2.78;;;4.30;94.90;;;;;;5029905;28;20411;-75
2021/01/20 04:11:44;;;;;;;8.07;3.40;;;4.30;94.70;;;;;;5025265;28;20038;-74
2021/01/20 04:14:10;;;;;;;5.22;3.10;;;4.30;94.30;;;;;;5025084;28;20061;-74
2021/01/20 04:16:36;;;;;;;5.57;2.85;;;4.40;94.10;;;;;;5032054;28;20045;-74
2021/01/20 04:19:02;;;;;;;7.40;3.40;;;4.40;94.30;;;;;;5014739;28;20526;-75
2021/01/20 04:21:29;;;;;;;6.05;3.10;;;4.40;94.60;;;;;;5014913;28;20185;-75
2021/01/20 04:23:55;;;;;;;5.68;3.03;;;4.40;94.30;;;;;;5027517;28;20435;-74
2021/01/20 04:26:20;;;;;;;7.70;3.30;;;4.40;94.30;;;;;;5027681;28;20172;-74
2021/01/20 04:28:47;;;;;;;5.07;2.65;;;4.40;94.40;;;;;;5029275;28;20087;-74
2021/01/20 04:31:13;;;;;;;8.60;3.53;;;4.30;94.40;;;;;;5026961;28;20423;-74
2021/01/20 04:33:39;;;;;;;5.78;3.35;;;4.40;94.30;;;;;;4991259;28;20055;-74
2021/01/20 04:36:05;;;;;;;5.35;3.20;;;4.40;94.40;;;;;;5028012;28;20021;-74
2021/01/20 04:38:31;;;;;;;8.02;3.08;;;4.40;94.70;;;;;;5028170;28;20395;-73
2021/01/20 04:40:58;;;;;;;8.10;3.30;;;4.40;94.60;;;;;;5030498;28;20037;-75
2021/01/20 04:43:24;;;;;;;13.05;5.75;;;4.40;94.80;;;;;;5025011;28;20479;-75
2021/01/20 04:45:51;;;;;;;6.95;3.55;;;4.40;94.80;;;;;;5030513;28;20087;-75
2021/01/20 04:48:19;;;;;;;6.18;3.13;;;4.30;94.70;;;;;;5027917;28;20033;-74
2021/01/20 04:50:48;;;;;;;5.75;3.45;;;4.30;94.50;;;;;;5023731;28;20057;-74
2021/01/20 04:53:15;;;;;;;6.47;3.55;;;4.50;94.60;;;;;;5026483;28;20087;-73
2021/01/20 04:55:44;;;;;;;5.93;3.33;;;4.40;94.80;;;;;;5025846;28;20396;-74
2021/01/20 04:58:13;;;;;;;9.38;3.58;;;4.40;94.80;;;;;;5030292;28;20033;-74
2021/01/20 05:00:41;;;;;;;5.72;3.08;;;4.50;94.60;;;;;;5029719;28;20581;-74
2021/01/20 05:03:09;;;;;;;6.53;3.20;;;4.50;94.40;;;;;;5026830;28;20087;-73
2021/01/20 05:05:35;;;;;;;7.28;3.60;;;4.70;93.70;;;;;;5029748;28;20450;-73
2021/01/20 05:08:05;;;;;;;10.40;3.53;;;4.70;93.90;;;;;;5029693;28;20050;-73
2021/01/20 05:10:31;;;;;;;6.65;3.58;;;4.60;94.20;;;;;;5030932;28;20402;-74
2021/01/20 05:12:57;;;;;;;6.95;3.58;;;4.60;94.50;;;;;;5031559;28;20038;-74
2021/01/20 05:15:35;;;;;;;7.10;4.00;;;4.60;94.50;;;;;;5029054;28;20573;-74
2021/01/20 05:18:05;;;;;;;7.28;3.80;;;4.50;94.70;;;;;;5028872;28;20057;-76
2021/01/20 05:20:36;;;;;;;7.35;3.47;;;4.60;94.70;;;;;;5040601;28;20149;-75
2021/01/20 05:23:03;;;;;;;;;;;4.60;94.90;;;;;;5029104;28;20091;-74
2021/01/20 05:25:37;;;;;;;6.38;3.50;;;4.60;94.70;;;;;;5027428;28;20550;-74
2021/01/20 05:28:24;;;;;;;6.35;3.30;;;4.60;94.80;;;;;;5004839;28;20045;-73
2021/01/20 05:30:49;;;;;;;6.53;3.83;;;4.60;95.10;;;;;;5026610;28;20037;-74
2021/01/20 05:33:17;;;;;;;7.10;4.28;;;4.70;94.70;;;;;;5028445;28;20022;-74
2021/01/20 05:35:44;;;;;;;8.43;4.28;;;4.70;95.00;;;;;;5028987;28;20048;-74
2021/01/20 05:38:10;;;;;;;7.90;4.00;;;5.00;95.20;;;;;;5030740;28;20037;-74
2021/01/20 05:40:36;;;;;;;7.80;3.75;;;4.60;95.40;;;;;;5027888;28;20037;-73
2021/01/20 05:43:04;;;;;;;8.55;3.60;;;4.60;95.60;;;;;;5032854;28;20040;-74
2021/01/20 05:45:29;;;;;;;7.07;3.95;;;4.60;95.60;;;;;;5032060;28;20037;-73
2021/01/20 05:48:02;;;;;;;8.32;3.67;;;4.60;95.90;;;;;;5020227;28;20503;-76
2021/01/20 05:50:28;;;;;;;7.43;4.05;;;4.70;96.00;;;;;;5024758;28;20041;-76
2021/01/20 05:53:11;;;;;;;7.85;3.95;;;4.70;96.10;;;;;;5036033;28;20043;-74
2021/01/20 05:55:38;;;;;;;8.20;4.18;;;4.70;96.30;;;;;;5023863;28;20041;-74
2021/01/20 05:58:05;;;;;;;7.25;3.50;;;4.70;96.30;;;;;;5019643;28;20045;-74
2021/01/20 06:00:32;;;;;;;10.50;4.47;;;4.70;96.50;;;;;;5026244;28;20568;-73
2021/01/20 06:02:58;;;;;;;8.55;4.15;;;4.90;96.30;;;;;;5026923;28;20079;-75
2021/01/20 06:05:28;;;;;;;8.45;4.57;;;4.90;96.20;;;;;;5026132;28;20037;-74
2021/01/20 06:07:54;;;;;;;7.30;4.00;;;5.00;96.40;;;;;;5027364;28;20443;-74
2021/01/20 06:10:22;;;;;;;7.60;3.75;;;4.90;96.60;;;;;;5037554;28;20041;-76
2021/01/20 06:12:49;;;;;;;8.15;4.25;;;4.90;96.80;;;;;;5029280;28;20399;-76
2021/01/20 06:15:15;;;;;;;8.98;4.28;;;5.00;96.80;;;;;;5034162;28;20095;-73
2021/01/20 06:17:42;;;;;;;12.93;4.53;;;4.90;97.10;;;;;;5030692;28;20029;-74
2021/01/20 06:20:10;;;;;;;10.63;4.88;;;5.00;97.10;;;;;;5026939;28;20121;-74
2021/01/20 06:22:47;;;;;;;9.85;4.57;;;4.90;97.40;;;;;;5029639;28;20042;-74
2021/01/20 06:25:31;;;;;;;8.20;4.35;;;4.90;97.60;;;;;;5019232;28;20042;-74
2021/01/20 06:28:17;;;;;;;9.45;4.40;;;4.90;97.60;;;;;;5026587;28;20048;-75
2021/01/20 06:30:49;;;;;;;7.75;3.90;;;4.90;97.80;;;;;;5031437;28;20415;-74
2021/01/20 06:33:17;;;;;;;12.18;4.47;;;5.00;98.00;;;;;;5030681;28;20041;-75
2021/01/20 06:35:50;;;;;;;7.72;4.35;;;5.20;97.60;;;;;;5026896;28;20029;-75
2021/01/20 06:38:28;;;;;;;11.05;4.78;;;5.20;97.60;;;;;;5027882;28;20411;-74
2021/01/20 06:40:55;;;;;;;9.55;4.47;;;5.10;97.80;;;;;;5025827;28;20095;-76
2021/01/20 06:43:47;;;;;;;8.50;4.32;;;5.10;98.20;;;;;;5042082;28;20045;-73
2021/01/20 06:46:20;;;;;;;10.25;4.18;;;5.10;98.20;;;;;;5026015;28;20049;-74
2021/01/20 06:48:51;;;;;;;9.30;4.70;;;5.20;98.20;;;;;;5028510;28;20083;-75
2021/01/20 06:51:17;;;;;;;6.03;4.05;;;5.30;98.00;;;;;;5025119;28;20109;-74
2021/01/20 06:53:59;;;;;;;9.48;4.28;;;5.30;98.10;;;;;;5029010;28;20069;-75
2021/01/20 06:56:43;;;;;;;12.48;5.03;;;5.40;98.10;;;;;;5035156;28;20037;-76
2021/01/20 06:59:17;;;;;;;12.13;5.57;;;5.30;98.40;;;;;;5018741;28;20450;-75
2021/01/20 07:02:03;;;;;;;13.15;4.95;;;5.30;98.50;;;;;;5012536;28;20049;-75
2021/01/20 07:04:37;;;;;;;9.85;4.45;;;5.20;98.80;;;;;;5030099;28;20295;-75
2021/01/20 07:07:09;;;;;;;9.55;4.35;;;5.10;99.10;;;;;;5026402;28;20026;-74
2021/01/20 07:09:50;;;;;;;9.15;4.50;;;5.10;99.20;;;;;;5023922;28;20037;-74
2021/01/20 07:12:21;;;;;;;;;;;5.10;99.50;;;;;;5031148;28;20038;-75
2021/01/20 07:14:48;;;;;;;11.25;4.93;;;5.10;99.70;;;;;;5029535;28;19915;-75
2021/01/20 07:17:15;;;;;;;12.30;4.80;;;5.10;99.70;;;;;;5027160;28;20408;-75
2021/01/20 07:19:44;;;;;;;8.15;4.38;;;5.10;99.90;;;;;;5020551;28;20072;-75
2021/01/20 07:22:11;;;;;;;11.88;4.50;;;5.10;99.90;;;;;;5030950;28;20532;-74
2021/01/20 07:24:37;;;;;;;14.63;4.72;;;5.10;99.90;;;;;;5030258;28;20025;-75
2021/01/20 07:27:10;;;;;;;11.43;4.68;;;5.20;99.90;;;;;;5022601;28;20629;-74
2021/01/20 07:29:37;;;;;;;8.88;4.43;;;5.20;99.90;;;;;;5020229;28;20044;-75
2021/01/20 07:32:03;;;;;;;10.27;4.57;;;5.20;99.90;;;;;;5020070;28;20475;-76
2021/01/20 07:34:43;;;;;;;9.27;4.20;;;5.30;99.90;;;;;;5018894;28;20033;-75
2021/01/20 07:37:13;;;;;;;8.48;4.25;;;5.40;99.90;;;;;;5016488;28;20037;-74
2021/01/20 07:39:40;;;;;;;10.25;4.72;;;5.40;99.90;;;;;;5018040;28;21614;-75
2021/01/20 07:42:06;;;;;;;7.50;4.78;;;5.40;99.90;;;;;;5012916;28;20106;-78
2021/01/20 07:44:45;;;;;;;9.27;4.20;;;5.40;99.90;;;;;;5022590;28;20045;-75
2021/01/20 07:47:11;;;;;;;9.45;4.32;;;5.40;99.90;;;;;;5019507;28;20410;-75
2021/01/20 07:49:38;;;;;;;10.93;4.10;;;5.50;99.90;;;;;;5017129;28;20041;-75
2021/01/20 07:52:09;;;;;;;10.18;4.10;;;5.60;99.90;;;;;;5010792;28;20030;-75
2021/01/20 07:54:36;;;;;;;12.13;5.32;;;5.60;99.90;;;;;;5008335;28;20035;-75
2021/01/20 07:57:22;;;;;;;7.63;3.90;;;5.70;99.90;;;;;;5012016;28;20167;-78
2021/01/20 08:00:05;;;;;;;11.07;4.63;;;5.70;99.90;;;;;;5016002;28;20041;-77
2021/01/20 08:02:31;;;;;;;9.43;3.83;;;5.70;99.90;;;;;;5010649;28;20041;-76
2021/01/20 08:05:03;;;;;;;9.57;3.85;;;5.70;99.90;;;;;;5007495;28;20045;-76
2021/01/20 08:07:29;;;;;;;9.32;4.28;;;5.80;99.90;;;;;;5012358;28;20041;-78
2021/01/20 08:09:54;;;;;;;8.60;4.43;;;5.80;99.90;;;;;;5008038;28;20103;-75
2021/01/20 08:12:27;;;;;;;12.95;4.68;;;5.70;99.90;;;;;;5010823;28;20131;-78
2021/01/20 08:14:53;;;;;;;8.27;4.50;;;5.80;99.90;;;;;;5015114;28;20546;-77
2021/01/20 08:17:20;;;;;;;10.73;4.03;;;5.80;99.90;;;;;;4992133;28;20076;-76
2021/01/20 08:19:48;;;;;;;8.32;3.85;;;6.30;99.90;;;;;;5021398;28;20562;-76
2021/01/20 08:22:15;;;;;;;8.57;4.32;;;5.90;99.80;;;;;;5016060;28;20543;-75
2021/01/20 08:24:48;;;;;;;9.27;4.57;;;5.90;99.90;;;;;;5006119;28;20115;-78
2021/01/20 08:27:14;;;;;;;7.72;4.03;;;6.00;99.90;;;;;;5027969;28;20101;-77
2021/01/20 08:29:52;;;;;;;10.32;4.05;;;5.90;99.90;;;;;;5030044;28;20092;-76
2021/01/20 08:32:17;;;;;;;9.68;4.10;;;5.90;99.90;;;;;;5032271;28;20029;-77
2021/01/20 08:34:45;;;;;;;8.13;3.88;;;6.00;99.90;;;;;;5028602;28;20503;-76
2021/01/20 08:37:17;;;;;;;10.50;3.47;;;6.00;99.80;;;;;;5017048;28;20025;-76
2021/01/20 08:39:52;;;;;;;8.93;4.00;;;6.00;99.80;;;;;;5020009;28;20033;-77
2021/01/20 08:42:21;;;;;;;11.65;4.20;;;6.00;99.70;;;;;;5023123;28;20025;-78
2021/01/20 08:45:09;;;;;;;9.88;3.90;;;6.10;99.60;;;;;;5025044;28;20102;-76
2021/01/20 08:47:52;;;;;;;8.73;4.10;;;6.10;99.70;;;;;;5018933;28;20048;-76
2021/01/20 08:50:21;;;;;;;10.50;4.15;;;6.10;99.70;;;;;;5039436;28;20033;-76
2021/01/20 08:52:49;;;;;;;9.48;3.92;;;6.20;99.80;;;;;;5019892;28;20045;-76
2021/01/20 08:55:27;;;;;;;10.63;4.30;;;6.20;99.60;;;;;;5026613;28;20021;-77
2021/01/20 08:58:18;;;;;;;9.25;4.50;;;6.30;99.50;;;;;;5023649;28;20025;-77
2021/01/20 09:00:47;;;;;;;10.88;3.70;;;6.30;99.60;;;;;;5023946;28;20029;-77
2021/01/20 09:03:17;;;;;;;8.30;3.65;;;6.40;99.40;;;;;;5022358;28;20709;-77
2021/01/20 09:05:44;;;;;;;7.50;4.18;;;6.40;99.20;;;;;;5025035;28;20053;-77
2021/01/20 09:08:10;;;;;;;7.82;3.97;;;6.50;99.20;;;;;;5022805;28;20155;-75
2021/01/20 09:10:36;;;;;;;8.32;3.85;;;6.50;99.10;;;;;;5027641;28;20571;-76
2021/01/20 09:13:02;;;;;;;7.85;3.72;;;6.50;99.30;;;;;;5023940;28;20037;-76
2021/01/20 09:15:31;;;;;;;6.72;3.30;;;8.20;99.50;;;;;;5040973;28;20073;-78
2021/01/20 09:17:57;;;;;;;9.38;3.35;;;6.80;98.90;;;;;;5039279;28;20479;-76
2021/01/20 09:20:23;;;;;;;9.93;3.40;;;;;;;;;;5022847;28;20033;-77
2021/01/20 09:22:49;;;;;;;9.02;3.40;;;6.90;98.60;;;;;;5021492;28;20033;-77
2021/01/20 09:25:15;;;;;;;9.23;3.20;;;6.90;98.70;;;;;;4998425;28;20125;-77
2021/01/20 09:27:41;;;;;;;7.20;3.30;;;7.00;98.60;;;;;;5029321;28;20499;-74
2021/01/20 09:30:07;;;;;;;6.90;2.80;;;8.30;98.90;;;;;;5025598;28;20052;-78
2021/01/20 09:32:43;;;;;;;6.53;3.10;;;7.10;98.30;;;;;;5010076;28;20049;-78
2021/01/20 09:35:13;;;;;;;8.05;3.08;;;7.20;98.20;;;;;;5023583;28;20033;-76
2021/01/20 09:37:40;;;;;;;9.18;3.15;;;7.20;98.30;;;;;;5015248;28;20113;-78
2021/01/20 09:40:09;;;;;;;8.63;3.08;;;7.30;97.80;;;;;;5024085;28;20037;-76
2021/01/20 09:42:39;;;;;;;5.47;2.75;;;7.30;98.00;;;;;;5029216;28;20057;-76
2021/01/20 09:45:07;;;;;;;5.25;2.67;;;7.40;98.10;;;;;;5029254;28;20032;-77
2021/01/20 09:47:34;;;;;;;8.30;2.92;;;7.60;97.30;;;;;;5021128;28;20049;-76
2021/01/20 09:50:02;;;;;;;7.60;2.90;;;7.60;97.50;;;;;;5024296;28;20048;-78
2021/01/20 09:52:28;;;;;;;6.72;2.88;;;;;;;;;;5026107;28;20136;-76
2021/01/20 09:54:55;;;;;;;5.47;2.65;;;7.60;97.40;;;;;;5028545;28;20041;-77
2021/01/20 09:57:21;;;;;;;5.57;2.90;;;7.60;97.50;;;;;;5026659;28;20441;-76
2021/01/20 09:59:48;;;;;;;5.43;2.40;;;7.70;97.60;;;;;;5020579;28;20124;-77
2021/01/20 10:02:14;;;;;;;9.35;2.88;;;7.70;97.50;;;;;;5023304;28;20739;-76
2021/01/20 10:04:40;;;;;;;10.98;3.70;;;7.70;97.60;;;;;;5018310;28;20044;-75
2021/01/20 10:07:06;;;;;;;6.93;3.35;;;8.90;97.70;;;;;;5028320;28;20617;-76
2021/01/20 10:09:37;;;;;;;11.05;3.15;;;7.80;97.60;;;;;;5025129;28;20037;-76
2021/01/20 10:12:04;;;;;;;;;;;7.90;97.20;;;;;;5007250;28;20499;-77
2021/01/20 10:14:29;;;;;;;9.10;3.13;;;9.80;97.60;;;;;;5020453;28;19920;-76
2021/01/20 10:16:55;;;;;;;5.90;2.47;;;8.00;96.90;;;;;;4998656;28;20479;-78
2021/01/20 10:19:21;;;;;;;5.65;2.30;;;8.10;96.90;;;;;;5019006;28;20101;-76
2021/01/20 10:21:47;;;;;;;8.60;2.97;;;8.20;96.50;;;;;;5018588;28;20560;-76
2021/01/20 10:24:13;;;;;;;6.72;2.60;;;8.20;96.50;;;;;;5007413;28;20045;-76
2021/01/20 10:26:40;;;;;;;9.10;2.70;;;8.30;96.40;;;;;;5006956;28;20049;-75
2021/01/20 10:29:09;;;;;;;9.25;2.80;;;8.30;96.40;;;;;;5023516;28;20116;-75
2021/01/20 10:31:36;;;;;;;6.03;2.50;;;9.70;96.90;;;;;;5026200;28;20045;-75
2021/01/20 10:34:03;;;;;;;5.97;2.60;;;8.40;96.40;;;;;;5018152;28;20041;-75
2021/01/20 10:36:29;;;;;;;7.70;2.45;;;8.40;96.30;;;;;;5025179;28;20495;-75
2021/01/20 10:38:55;;;;;;;5.82;2.15;;;8.40;96.40;;;;;;5018454;28;20410;-77
2021/01/20 10:41:25;;;;;;;7.00;2.42;;;8.40;96.50;;;;;;5022187;28;20065;-76
2021/01/20 10:43:52;;;;;;;8.25;2.38;;;8.50;96.50;;;;;;5024632;28;20122;-74
2021/01/20 10:46:19;;;;;;;7.13;2.50;;;8.50;96.40;;;;;;5023504;28;20033;-77
2021/01/20 10:48:45;;;;;;;6.78;2.53;;;8.60;96.40;;;;;;5020090;28;20180;-76
2021/01/20 10:51:11;;;;;;;8.18;2.33;;;8.50;96.50;;;;;;5028940;28;20051;-75
2021/01/20 10:53:40;;;;;;;6.53;2.13;;;8.60;96.60;;;;;;5030095;28;20407;-75
2021/01/20 10:56:07;;;;;;;7.65;2.40;;;8.70;96.40;;;;;;5021595;28;20568;-73
2021/01/20 10:58:34;;;;;;;11.65;6.15;;;8.70;96.40;;;;;;5002954;28;20038;-76
2021/01/20 11:01:00;;;;;;;9.48;3.03;;;8.80;96.30;;;;;;5027444;28;20049;-75
2021/01/20 11:03:26;;;;;;;6.70;3.28;;;8.80;96.20;;;;;;5023417;28;20496;-75
2021/01/20 11:05:53;;;;;;;8.02;2.63;;;8.90;96.00;;;;;;5022778;28;20048;-75
2021/01/20 11:08:18;;;;;;;5.28;2.60;;;8.90;96.00;;;;;;5032243;28;20053;-78
2021/01/20 11:10:45;;;;;;;6.28;2.20;;;9.00;96.10;;;;;;5024576;28;20048;-76
2021/01/20 11:13:11;;;;;;;5.25;2.17;;;9.10;95.90;;;;;;5027284;28;20034;-75
2021/01/20 11:15:38;;;;;;;6.45;2.45;;;10.20;96.40;;;;;;5024479;28;20026;-75
2021/01/20 11:18:06;;;;;;;7.03;2.50;;;9.20;95.60;;;;;;5028521;28;20444;-75
2021/01/20 11:20:33;;;;;;;4.55;2.03;;;9.20;95.90;;;;;;5025503;28;20123;-76
2021/01/20 11:22:59;;;;;;;7.68;2.53;;;9.20;95.60;;;;;;5029830;28;20048;-75
2021/01/20 11:25:25;;;;;;;6.78;2.33;;;9.70;95.90;;;;;;5025884;28;20491;-75
2021/01/20 11:27:51;;;;;;;7.82;2.63;;;9.30;95.50;;;;;;5028666;28;20418;-75
2021/01/20 11:30:20;;;;;;;8.75;2.75;;;9.40;95.30;;;;;;5026520;28;20088;-75
2021/01/20 11:32:46;;;;;;;7.68;2.35;;;9.40;95.30;;;;;;5028130;28;20464;-76
2021/01/20 11:35:15;;;;;;;6.53;2.55;;;9.40;95.20;;;;;;5018512;28;20207;-74
2021/01/20 11:37:42;;;;;;;7.57;2.50;;;9.40;95.30;;;;;;5021315;28;20097;-75
2021/01/20 11:40:08;;;;;;;9.55;2.50;;;11.30;95.80;;;;;;5022931;28;20041;-76
2021/01/20 11:42:34;;;;;;;4.50;2.20;;;9.40;95.20;;;;;;5023516;28;20132;-76
2021/01/20 11:45:01;;;;;;;8.90;2.95;;;9.50;95.20;;;;;;5013228;28;20048;-75
2021/01/20 11:47:27;;;;;;;8.77;2.28;;;9.60;95.10;;;;;;5030956;28;20042;-75
2021/01/20 11:49:53;;;;;;;9.38;2.85;;;9.70;95.00;;;;;;5012273;28;20038;-76
2021/01/20 11:52:19;;;;;;;7.40;2.58;;;9.70;94.90;;;;;;5011791;28;20116;-76
2021/01/20 11:54:45;;;;;;;8.30;2.38;;;9.70;94.90;;;;;;5011419;28;20029;-75
2021/01/20 11:57:11;;;;;;;6.60;2.20;;;9.80;94.80;;;;;;5016819;28;20092;-76
2021/01/20 11:59:36;;;;;;;6.93;2.10;;;9.80;94.70;;;;;;5011793;28;20525;-75
2021/01/20 12:02:02;;;;;;;12.50;2.95;;;9.80;94.50;;;;;;4996484;28;20064;-76
2021/01/20 12:04:27;;;;;;;5.65;2.20;;;9.80;94.40;;;;;;5007376;28;22673;-78
2021/01/20 12:06:53;;;;;;;7.65;2.22;;;9.80;94.50;;;;;;4998762;28;20057;-77
2021/01/20 12:09:22;;;;;;;5.35;1.90;;;9.80;94.60;;;;;;4997330;28;20045;-76
2021/01/20 12:11:48;;;;;;;6.13;2.15;;;9.80;94.70;;;;;;5015563;28;20069;-75
2021/01/20 12:14:14;;;;;;;3.75;2.03;;;9.80;94.70;;;;;;5010938;28;20062;-74
2021/01/20 12:16:41;;;;;;;5.53;2.58;;;9.80;94.70;;;;;;5009910;28;20045;-75
2021/01/20 12:19:07;;;;;;;6.78;1.92;;;9.90;94.70;;;;;;5009052;28;20128;-75
2021/01/20 12:21:33;;;;;;;5.10;2.13;;;9.90;94.50;;;;;;5011118;28;20025;-76
2021/01/20 12:23:59;;;;;;;5.30;2.05;;;9.90;94.40;;;;;;5012600;28;20057;-76
2021/01/20 12:26:26;;;;;;;10.65;2.22;;;9.80;94.40;;;;;;5014290;28;20044;-75
2021/01/20 12:28:52;;;;;;;7.00;2.10;;;9.90;94.40;;;;;;5006594;28;20099;-75
2021/01/20 12:31:20;;;;;;;6.53;2.10;;;9.90;94.40;;;;;;5013366;28;20114;-76
2021/01/20 12:33:45;;;;;;;6.05;2.28;;;10.00;94.20;;;;;;5015080;28;20045;-75
2021/01/20 12:36:11;;;;;;;35.05;14.20;;;10.00;94.00;;;;;;5012147;28;20034;-76
2021/01/20 12:38:37;;;;;;;35.65;15.10;;;10.10;94.00;;;;;;5012003;28;20088;-73
2021/01/20 12:41:05;;;;;;;11.05;3.33;;;10.20;94.00;;;;;;5025576;28;20088;-77
2021/01/20 12:43:31;;;;;;;10.63;3.00;;;10.20;93.80;;;;;;5023099;28;20168;-75
2021/01/20 12:45:56;;;;;;;8.70;3.47;;;10.20;93.90;;;;;;5020115;28;20944;-78
2021/01/20 12:48:22;;;;;;;5.28;2.10;;;10.20;93.80;;;;;;5021715;28;20507;-77
2021/01/20 12:50:49;;;;;;;5.80;2.00;;;10.30;93.70;;;;;;5025675;28;20047;-74
2021/01/20 12:53:15;;;;;;;4.40;1.98;;;10.30;93.60;;;;;;5003900;28;20233;-78
2021/01/20 12:55:40;;;;;;;6.00;2.13;;;10.30;93.60;;;;;;5026316;28;20297;-77
2021/01/20 12:58:06;;;;;;;3.95;1.60;;;10.40;93.50;;;;;;5016098;28;20057;-74
2021/01/20 13:00:31;;;;;;;6.30;2.40;;;10.30;93.50;;;;;;5018542;28;20060;-75
2021/01/20 13:02:57;;;;;;;5.53;1.80;;;10.30;93.70;;;;;;5031087;28;20052;-76